Time;durP1;ratioP1;P1;durP2;ratioP2;P2;SDS_P1;SDS_P2;PMS_P1;PMS_P2;Temp;Humidity;BMP_temperature;BMP_pressure;BME280_temperature;BME280_humidity;BME280_pressure;Samples;Min_cycle;Max_cycle;Signal;HPM_P1;HPM_P2
2022/07/17 00:00:51;;;;;;;2.67;2.10;;;8.80;99.90;;;;;;5023155;28;20049;-77
2022/07/17 00:03:17;;;;;;;5.70;2.50;;;8.80;99.90;;;;;;5035796;28;20055;-77
2022/07/17 00:05:45;;;;;;;3.97;2.40;;;8.80;99.90;;;;;;5025417;28;20037;-77
2022/07/17 00:08:11;;;;;;;4.03;2.25;;;8.80;99.90;;;;;;5019976;28;20025;-77
2022/07/17 00:10:40;;;;;;;4.82;2.85;;;8.70;99.90;;;;;;5030640;28;20026;-77
2022/07/17 00:13:06;;;;;;;7.72;3.10;;;8.70;95.10;;;;;;5028932;28;20022;-77
2022/07/17 00:15:32;;;;;;;7.07;4.85;;;8.70;93.00;;;;;;5022722;28;20531;-77
2022/07/17 00:17:59;;;;;;;7.72;4.38;;;8.80;99.90;;;;;;5025792;28;20030;-77
2022/07/17 00:20:26;;;;;;;9.15;4.45;;;8.80;99.90;;;;;;5032921;28;20026;-77
2022/07/17 00:22:52;;;;;;;9.52;4.68;;;8.80;99.90;;;;;;5035927;28;20026;-78
2022/07/17 00:25:18;;;;;;;8.18;4.40;;;8.70;99.90;;;;;;5035852;28;20030;-77
2022/07/17 00:27:43;;;;;;;7.40;4.10;;;8.60;99.90;;;;;;5022646;28;20155;-77
2022/07/17 00:30:09;;;;;;;5.22;3.45;;;8.60;99.90;;;;;;5035758;28;20465;-77
2022/07/17 00:32:35;;;;;;;4.47;2.92;;;8.70;99.90;;;;;;5022931;28;20361;-77
2022/07/17 00:35:01;;;;;;;5.60;3.28;;;8.60;99.90;;;;;;5035639;28;20025;-77
2022/07/17 00:37:26;;;;;;;6.50;3.85;;;8.70;99.90;;;;;;5035588;28;20483;-77
2022/07/17 00:39:52;;;;;;;8.40;4.22;;;9.00;99.90;;;;;;5035294;28;20028;-77
2022/07/17 00:42:18;;;;;;;6.82;3.90;;;9.00;99.90;;;;;;5021282;28;20046;-77
2022/07/17 00:44:44;;;;;;;6.28;3.70;;;8.70;99.90;;;;;;5035540;28;20045;-76
2022/07/17 00:47:16;;;;;;;9.80;4.30;;;8.70;99.90;;;;;;5035568;28;20037;-77
2022/07/17 00:49:41;;;;;;;7.55;4.03;;;8.60;99.90;;;;;;5021511;28;20480;-77
2022/07/17 00:52:09;;;;;;;5.72;3.35;;;8.60;99.90;;;;;;5035486;28;20049;-77
2022/07/17 00:54:39;;;;;;;8.20;3.60;;;8.60;99.90;;;;;;5021368;28;20025;-76
2022/07/17 00:57:09;;;;;;;;;;;8.60;99.90;;;;;;5025467;28;20144;-76
2022/07/17 00:59:35;;;;;;;6.47;3.57;;;8.60;99.90;;;;;;5032135;28;20343;-76
2022/07/17 01:02:08;;;;;;;5.45;3.15;;;8.50;99.90;;;;;;5017518;28;20255;-77
2022/07/17 01:04:35;;;;;;;5.13;3.00;;;8.50;99.90;;;;;;5015209;28;20525;-77
2022/07/17 01:07:06;;;;;;;6.55;3.13;;;8.50;99.90;;;;;;5003112;28;20028;-76
2022/07/17 01:09:33;;;;;;;6.35;2.97;;;8.50;99.90;;;;;;5024870;28;20030;-77
2022/07/17 01:12:00;;;;;;;5.38;2.85;;;8.40;99.90;;;;;;5024679;28;20453;-77
2022/07/17 01:14:27;;;;;;;3.20;2.55;;;8.40;99.90;;;;;;5019955;28;20117;-77
2022/07/17 01:16:54;;;;;;;5.65;2.63;;;8.40;99.90;;;;;;5027288;28;20022;-77
2022/07/17 01:19:20;;;;;;;6.03;2.78;;;8.40;99.90;;;;;;5029080;28;20021;-77
2022/07/17 01:21:49;;;;;;;6.50;2.90;;;8.40;99.90;;;;;;5015474;28;20053;-77
2022/07/17 01:24:15;;;;;;;5.28;3.30;;;8.30;99.90;;;;;;5015306;28;20022;-77
2022/07/17 01:26:45;;;;;;;10.18;3.58;;;8.40;99.90;;;;;;5029191;28;20492;-76
2022/07/17 01:29:12;;;;;;;7.63;3.15;;;8.40;99.90;;;;;;5025866;28;20488;-76
2022/07/17 01:31:39;;;;;;;10.50;3.70;;;8.40;99.90;;;;;;5020852;28;20072;-76
2022/07/17 01:34:06;;;;;;;6.00;3.47;;;8.40;99.90;;;;;;5025551;28;20034;-76
2022/07/17 01:36:33;;;;;;;6.35;3.25;;;8.40;99.90;;;;;;5029156;28;20072;-76
2022/07/17 01:38:59;;;;;;;4.13;2.83;;;8.50;99.90;;;;;;5021893;28;20021;-77
2022/07/17 01:41:25;;;;;;;4.32;3.65;;;8.50;99.90;;;;;;5021322;28;20086;-77
2022/07/17 01:43:50;;;;;;;6.88;3.38;;;8.40;99.90;;;;;;5028571;28;20054;-77
2022/07/17 01:46:16;;;;;;;7.88;3.53;;;8.40;99.90;;;;;;5025653;28;20381;-77
2022/07/17 01:48:41;;;;;;;5.65;3.38;;;8.60;99.90;;;;;;5020780;28;20068;-77
2022/07/17 01:51:07;;;;;;;6.60;3.40;;;8.60;99.90;;;;;;5025120;28;20025;-77
2022/07/17 01:53:33;;;;;;;5.90;3.20;;;8.50;99.90;;;;;;5028381;28;20370;-77
2022/07/17 01:55:58;;;;;;;6.25;3.40;;;8.40;99.90;;;;;;5021137;28;20105;-76
2022/07/17 01:58:24;;;;;;;6.10;2.72;;;8.40;99.90;;;;;;5021458;28;20041;-77
2022/07/17 02:00:50;;;;;;;6.00;3.10;;;8.40;99.90;;;;;;5028104;28;20036;-76
2022/07/17 02:03:17;;;;;;;7.05;3.22;;;8.40;99.90;;;;;;5025026;28;20048;-77
2022/07/17 02:05:43;;;;;;;6.93;3.47;;;8.40;99.90;;;;;;5019998;28;20017;-76
2022/07/17 02:08:08;;;;;;;9.77;3.40;;;8.40;99.90;;;;;;5024924;28;20038;-76
2022/07/17 02:10:34;;;;;;;6.43;3.40;;;8.40;99.90;;;;;;5028830;28;20029;-76
2022/07/17 02:13:00;;;;;;;5.57;3.13;;;8.40;99.90;;;;;;5020196;28;20473;-76
2022/07/17 02:15:26;;;;;;;6.22;3.45;;;8.40;99.90;;;;;;5021800;28;20022;-77
2022/07/17 02:17:51;;;;;;;7.70;3.72;;;8.50;99.90;;;;;;5027866;28;20029;-77
2022/07/17 02:20:18;;;;;;;8.80;3.80;;;8.50;99.90;;;;;;5023707;28;20526;-77
2022/07/17 02:22:44;;;;;;;5.50;3.42;;;8.40;99.90;;;;;;5019925;28;20381;-76
2022/07/17 02:25:11;;;;;;;5.03;3.17;;;8.50;99.90;;;;;;5026807;28;20358;-77
2022/07/17 02:27:37;;;;;;;5.38;3.13;;;8.40;99.90;;;;;;5028392;28;20049;-77
2022/07/17 02:30:06;;;;;;;8.82;3.10;;;8.40;99.90;;;;;;5020469;28;20068;-77
2022/07/17 02:32:31;;;;;;;9.95;3.25;;;8.30;99.90;;;;;;5021094;28;20457;-77
2022/07/17 02:34:57;;;;;;;5.82;3.20;;;8.30;99.90;;;;;;5018404;28;20037;-76
2022/07/17 02:37:23;;;;;;;6.13;3.20;;;8.30;99.90;;;;;;5022402;28;20117;-77
2022/07/17 02:39:54;;;;;;;7.10;3.40;;;8.40;99.90;;;;;;5027423;28;20036;-77
2022/07/17 02:42:26;;;;;;;7.03;3.95;;;8.30;99.90;;;;;;5022582;28;20057;-77
2022/07/17 02:44:52;;;;;;;6.93;2.83;;;8.30;99.90;;;;;;5019426;28;20022;-78
2022/07/17 02:47:26;;;;;;;3.83;2.95;;;8.30;99.90;;;;;;5024910;28;20402;-77
2022/07/17 02:49:52;;;;;;;6.78;3.80;;;8.30;99.90;;;;;;5027625;28;20022;-77
2022/07/17 02:52:18;;;;;;;7.63;3.40;;;8.30;99.90;;;;;;5020835;28;20041;-77
2022/07/17 02:54:44;;;;;;;5.13;3.47;;;8.50;99.90;;;;;;5020255;28;20071;-77
2022/07/17 02:57:10;;;;;;;4.15;2.90;;;8.50;99.90;;;;;;5027135;28;20112;-77
2022/07/17 02:59:37;;;;;;;6.57;2.92;;;8.40;99.90;;;;;;5024795;28;20516;-76
2022/07/17 03:02:02;;;;;;;8.25;3.22;;;8.70;99.90;;;;;;5019223;28;20500;-77
2022/07/17 03:04:28;;;;;;;6.43;3.60;;;8.90;99.90;;;;;;5026076;28;20022;-77
2022/07/17 03:06:54;;;;;;;8.50;3.83;;;9.00;99.90;;;;;;5018973;28;20021;-77
2022/07/17 03:09:19;;;;;;;10.32;3.85;;;9.30;99.90;;;;;;5025294;28;20034;-77
2022/07/17 03:11:45;;;;;;;10.45;4.05;;;9.40;99.90;;;;;;5023023;28;20054;-77
2022/07/17 03:14:10;;;;;;;9.10;3.55;;;9.30;99.90;;;;;;5017549;28;20032;-77
2022/07/17 03:16:36;;;;;;;5.72;3.72;;;9.30;99.90;;;;;;5020948;28;20097;-77
2022/07/17 03:19:02;;;;;;;9.48;4.03;;;9.30;99.90;;;;;;5019601;28;20092;-77
2022/07/17 03:21:27;;;;;;;6.30;3.50;;;9.30;99.90;;;;;;5027139;28;20039;-77
2022/07/17 03:23:53;;;;;;;7.80;2.92;;;9.30;99.90;;;;;;5024622;28;20428;-76
2022/07/17 03:26:19;;;;;;;6.50;2.75;;;9.30;99.90;;;;;;5018680;28;20101;-77
2022/07/17 03:28:44;;;;;;;6.63;3.00;;;9.60;99.90;;;;;;5023505;28;20058;-77
2022/07/17 03:31:10;;;;;;;7.82;2.75;;;9.70;99.90;;;;;;5026869;28;20465;-77
2022/07/17 03:33:35;;;;;;;4.80;3.47;;;9.70;99.90;;;;;;5020595;28;20022;-77
2022/07/17 03:36:01;;;;;;;6.20;3.58;;;9.70;73.60;;;;;;5019724;28;20067;-77
2022/07/17 03:38:27;;;;;;;9.45;3.53;;;9.80;49.40;;;;;;5026889;28;20061;-77
2022/07/17 03:40:52;;;;;;;6.63;3.38;;;9.90;81.30;;;;;;5024250;28;20485;-77
2022/07/17 03:43:18;;;;;;;4.95;3.25;;;10.00;24.40;;;;;;5018329;28;20492;-77
2022/07/17 03:45:44;;;;;;;7.00;3.17;;;10.10;20.60;;;;;;5022828;28;20022;-77
2022/07/17 03:48:09;;;;;;;4.25;2.80;;;10.20;22.10;;;;;;5026269;28;20036;-78
2022/07/17 03:50:35;;;;;;;6.10;3.17;;;10.20;10.10;;;;;;5020027;28;20519;-77
2022/07/17 03:53:01;;;;;;;6.32;3.15;;;10.30;49.90;;;;;;5019396;28;20064;-77
2022/07/17 03:55:26;;;;;;;5.80;3.13;;;10.30;38.60;;;;;;5027013;28;20026;-77
2022/07/17 03:57:52;;;;;;;6.50;2.80;;;10.50;50.60;;;;;;5024175;28;20025;-77
2022/07/17 04:00:18;;;;;;;6.05;2.97;;;10.50;4.20;;;;;;5018707;28;20018;-77
2022/07/17 04:02:44;;;;;;;5.18;2.85;;;10.50;32.30;;;;;;5024321;28;20022;-77
2022/07/17 04:05:11;;;;;;;4.25;3.15;;;10.60;23.30;;;;;;5027413;28;20148;-77
2022/07/17 04:07:38;;;;;;;5.88;3.15;;;10.70;49.20;;;;;;5020471;28;20026;-76
2022/07/17 04:10:05;;;;;;;5.43;2.50;;;10.70;43.40;;;;;;5027464;28;20033;-77
2022/07/17 04:12:31;;;;;;;3.88;2.92;;;10.60;1.00;;;;;;5018581;28;20034;-77
2022/07/17 04:14:56;;;;;;;10.45;3.67;;;10.70;1.00;;;;;;5025314;28;20022;-77
2022/07/17 04:17:22;;;;;;;4.60;2.85;;;10.80;1.70;;;;;;5030118;28;20065;-77
2022/07/17 04:19:48;;;;;;;6.43;2.72;;;10.80;1.00;;;;;;5029968;28;20060;-76
2022/07/17 04:22:14;;;;;;;7.70;2.83;;;10.90;1.00;;;;;;5028169;28;20021;-77
2022/07/17 04:24:40;;;;;;;5.55;2.58;;;11.00;1.00;;;;;;5022130;28;20346;-77
2022/07/17 04:27:07;;;;;;;4.28;2.78;;;11.10;4.00;;;;;;5026372;28;20105;-77
2022/07/17 04:29:33;;;;;;;4.30;2.75;;;11.20;1.00;;;;;;5032161;28;20436;-77
2022/07/17 04:32:00;;;;;;;5.35;2.90;;;11.20;1.00;;;;;;5027765;28;20453;-77
2022/07/17 04:34:25;;;;;;;4.25;2.80;;;11.30;1.00;;;;;;5024620;28;20097;-77
2022/07/17 04:36:52;;;;;;;7.13;3.53;;;11.40;1.00;;;;;;5032708;28;20057;-77
2022/07/17 04:39:17;;;;;;;7.43;2.65;;;11.50;1.00;;;;;;5032123;28;20108;-77
2022/07/17 04:41:43;;;;;;;7.80;3.05;;;11.70;4.80;;;;;;5023820;28;20129;-77
2022/07/17 04:44:09;;;;;;;3.28;2.47;;;11.70;1.00;;;;;;5027812;28;20032;-78
2022/07/17 04:46:34;;;;;;;6.50;2.60;;;11.90;1.00;;;;;;5033325;28;20104;-77
2022/07/17 04:49:00;;;;;;;3.10;2.30;;;11.80;1.00;;;;;;5028727;28;20021;-77
2022/07/17 04:51:25;;;;;;;4.60;2.50;;;11.90;1.00;;;;;;5022413;28;20028;-77
2022/07/17 04:53:51;;;;;;;6.82;2.60;;;12.10;1.00;;;;;;5021996;28;20068;-76
2022/07/17 04:56:16;;;;;;;6.00;2.60;;;12.20;1.00;;;;;;5023233;28;20026;-77
2022/07/17 04:58:42;;;;;;;6.78;2.50;;;12.30;1.00;;;;;;5033761;28;20483;-77
2022/07/17 05:01:08;;;;;;;8.02;2.60;;;12.30;1.00;;;;;;5035662;28;20021;-77
2022/07/17 05:03:33;;;;;;;3.08;2.33;;;12.50;1.00;;;;;;5035353;28;20416;-77
2022/07/17 05:05:59;;;;;;;5.55;2.65;;;12.50;1.00;;;;;;5035249;28;20056;-77
2022/07/17 05:08:24;;;;;;;2.60;2.00;;;12.50;1.00;;;;;;5035464;28;20033;-77
2022/07/17 05:10:50;;;;;;;4.63;2.00;;;12.70;1.00;;;;;;5032473;28;20022;-77
2022/07/17 05:13:16;;;;;;;4.78;1.98;;;12.70;1.00;;;;;;5023320;28;20057;-77
2022/07/17 05:15:41;;;;;;;5.65;1.80;;;12.80;1.00;;;;;;5021322;28;20022;-77
2022/07/17 05:18:08;;;;;;;3.42;1.85;;;12.90;1.00;;;;;;5029213;28;20084;-76
2022/07/17 05:20:34;;;;;;;2.35;1.80;;;12.90;1.00;;;;;;5027771;28;20045;-77
2022/07/17 05:22:59;;;;;;;6.70;2.00;;;13.00;1.00;;;;;;5021057;28;20014;-78
2022/07/17 05:25:25;;;;;;;7.10;2.10;;;13.10;1.00;;;;;;5024608;28;20045;-77
2022/07/17 05:27:51;;;;;;;4.50;1.95;;;13.20;1.00;;;;;;5027930;28;20022;-77
2022/07/17 05:30:16;;;;;;;5.05;2.78;;;13.20;1.00;;;;;;5023117;28;20033;-77
2022/07/17 05:32:42;;;;;;;5.13;2.97;;;13.40;1.00;;;;;;5020658;28;20030;-77
2022/07/17 05:35:09;;;;;;;3.13;2.05;;;13.60;1.00;;;;;;5021241;28;20036;-78
2022/07/17 05:37:35;;;;;;;4.63;1.90;;;13.90;1.00;;;;;;5022467;28;20119;-77
2022/07/17 05:40:00;;;;;;;2.83;2.10;;;14.30;1.00;;;;;;5036969;28;20018;-76
2022/07/17 05:42:26;;;;;;;4.88;1.98;;;14.80;1.00;;;;;;5038824;28;20049;-76
2022/07/17 05:44:52;;;;;;;5.95;1.80;;;15.40;1.00;;;;;;5040441;28;20036;-76
2022/07/17 05:47:17;;;;;;;5.18;1.83;;;16.00;1.00;;;;;;5044413;28;20045;-75
2022/07/17 05:49:43;;;;;;;6.70;2.20;;;16.60;1.00;;;;;;5042467;28;20097;-74
2022/07/17 05:52:08;;;;;;;5.10;1.40;;;17.40;99.90;;;;;;5032553;28;20030;-76
2022/07/17 05:54:34;;;;;;;7.80;2.33;;;22.00;99.90;;;;;;5029189;28;20065;-77
2022/07/17 05:57:00;;;;;;;4.35;1.33;;;21.10;99.90;;;;;;5014702;28;20033;-78
2022/07/17 05:59:26;;;;;;;5.70;1.33;;;21.30;99.90;;;;;;5014498;28;20445;-78
2022/07/17 06:01:52;;;;;;;6.22;1.17;;;20.30;99.90;;;;;;5017300;28;20498;-77
2022/07/17 06:04:17;;;;;;;3.25;1.00;;;20.20;99.90;;;;;;5015223;28;20084;-78
2022/07/17 06:06:43;;;;;;;4.88;1.20;;;20.60;99.90;;;;;;5018705;28;20061;-78
2022/07/17 06:09:08;;;;;;;4.80;1.05;;;21.00;99.90;;;;;;5035664;28;20022;-77
2022/07/17 06:11:34;;;;;;;3.20;1.15;;;24.00;99.90;;;;;;5046830;28;20028;-77
2022/07/17 06:14:00;;;;;;;3.85;1.02;;;25.10;99.90;;;;;;5051598;28;20084;-77
2022/07/17 06:16:25;;;;;;;4.20;1.15;;;24.30;99.90;;;;;;5025527;28;20017;-77
2022/07/17 06:18:51;;;;;;;3.50;1.02;;;26.70;99.90;;;;;;5022160;28;20104;-77
2022/07/17 06:21:17;;;;;;;5.68;1.25;;;25.90;99.90;;;;;;5027561;28;20033;-78
2022/07/17 06:23:42;;;;;;;5.63;1.50;;;27.90;99.90;;;;;;5024350;28;20022;-77
2022/07/17 06:26:08;;;;;;;3.45;1.17;;;28.70;99.90;;;;;;5019794;28;20095;-77
2022/07/17 06:28:34;;;;;;;2.95;0.80;;;28.90;99.90;;;;;;5033479;28;20105;-77
2022/07/17 06:30:59;;;;;;;1.13;0.93;;;27.30;99.90;;;;;;5033471;28;20028;-77
2022/07/17 06:33:25;;;;;;;2.40;0.90;;;26.00;99.90;;;;;;5033876;28;20029;-77
2022/07/17 06:35:50;;;;;;;5.22;1.17;;;25.20;99.90;;;;;;5034189;28;20026;-77
2022/07/17 06:38:16;;;;;;;6.85;1.20;;;24.50;99.90;;;;;;5033424;28;20080;-77
2022/07/17 06:40:42;;;;;;;4.43;0.80;;;23.80;99.90;;;;;;5033596;28;20057;-77
2022/07/17 06:43:08;;;;;;;4.68;1.00;;;23.90;99.90;;;;;;5015393;28;20453;-77
2022/07/17 06:45:33;;;;;;;3.60;0.93;;;24.60;99.90;;;;;;5014713;28;20025;-77
2022/07/17 06:47:59;;;;;;;2.17;1.10;;;24.50;99.90;;;;;;5017729;28;20049;-78
2022/07/17 06:50:25;;;;;;;4.88;1.20;;;25.60;99.90;;;;;;5034114;28;20053;-77
2022/07/17 06:52:50;;;;;;;3.65;0.73;;;25.00;99.90;;;;;;5005374;28;20026;-78
2022/07/17 06:55:16;;;;;;;4.90;0.85;;;24.80;99.90;;;;;;5029093;28;20022;-77
2022/07/17 06:57:41;;;;;;;4.70;0.90;;;25.10;99.90;;;;;;5027757;28;20140;-77
2022/07/17 07:00:08;;;;;;;6.38;0.80;;;25.70;99.90;;;;;;5039100;28;20029;-78
2022/07/17 07:02:34;;;;;;;3.72;0.90;;;26.10;99.90;;;;;;5035064;28;20030;-77
2022/07/17 07:05:04;;;;;;;4.22;0.80;;;26.90;99.90;;;;;;5028529;28;20574;-77
2022/07/17 07:07:30;;;;;;;3.72;0.85;;;26.60;99.90;;;;;;5033719;28;20010;-77
2022/07/17 07:09:55;;;;;;;2.08;0.90;;;26.70;99.90;;;;;;5041270;28;20022;-76
2022/07/17 07:12:21;;;;;;;3.67;0.88;;;26.50;99.90;;;;;;5042127;28;20026;-77
2022/07/17 07:14:47;;;;;;;3.88;0.77;;;28.70;99.90;;;;;;5024705;28;20057;-76
2022/07/17 07:17:12;;;;;;;2.60;0.60;;;28.60;99.90;;;;;;5040605;28;20041;-76
2022/07/17 07:19:38;;;;;;;3.47;0.80;;;29.30;99.90;;;;;;5033983;28;20108;-77
2022/07/17 07:22:04;;;;;;;1.95;0.70;;;29.80;99.90;;;;;;5039209;28;20493;-77
2022/07/17 07:24:29;;;;;;;2.55;0.52;;;33.60;99.90;;;;;;5032773;28;20437;-77
2022/07/17 07:26:55;;;;;;;3.75;0.80;;;34.50;99.90;;;;;;5035194;28;20057;-77
2022/07/17 07:29:20;;;;;;;3.90;0.70;;;36.40;99.90;;;;;;5035455;28;20081;-77
2022/07/17 07:31:47;;;;;;;3.20;0.70;;;36.90;99.90;;;;;;5029296;28;20041;-77
2022/07/17 07:34:13;;;;;;;4.72;0.60;;;37.80;99.90;;;;;;5026082;28;20082;-77
2022/07/17 07:36:38;;;;;;;3.35;0.70;;;38.60;99.90;;;;;;5041041;28;20009;-77
2022/07/17 07:39:04;;;;;;;4.53;0.70;;;39.40;99.90;;;;;;5036683;28;20584;-78
2022/07/17 07:41:30;;;;;;;4.00;0.70;;;37.80;99.90;;;;;;5038402;28;20053;-78
2022/07/17 07:43:55;;;;;;;4.72;0.77;;;38.00;99.90;;;;;;5042061;28;20061;-77
2022/07/17 07:46:21;;;;;;;3.40;0.73;;;38.50;99.90;;;;;;5032986;28;20018;-78
2022/07/17 07:48:46;;;;;;;1.83;0.60;;;39.20;99.90;;;;;;5046856;28;20041;-78
2022/07/17 07:51:12;;;;;;;2.50;0.60;;;40.80;99.90;;;;;;5039410;28;20014;-78
2022/07/17 07:53:38;;;;;;;3.13;0.70;;;41.30;99.90;;;;;;5042697;28;20502;-78
2022/07/17 07:56:03;;;;;;;3.45;0.80;;;41.30;99.90;;;;;;5049257;28;20030;-78
2022/07/17 07:58:29;;;;;;;3.28;0.60;;;39.50;99.90;;;;;;5049487;28;20105;-78
2022/07/17 08:00:55;;;;;;;3.08;0.52;;;40.60;99.90;;;;;;5042415;28;20028;-78
2022/07/17 08:03:20;;;;;;;2.95;0.77;;;40.30;99.90;;;;;;5047767;28;20053;-78
2022/07/17 08:05:46;;;;;;;2.05;0.50;;;41.90;99.90;;;;;;5044807;28;20014;-78
2022/07/17 08:08:11;;;;;;;4.10;0.80;;;41.90;99.90;;;;;;5039529;28;20018;-78
2022/07/17 08:10:37;;;;;;;1.67;0.73;;;41.60;99.90;;;;;;5046420;28;20033;-79
2022/07/17 08:13:03;;;;;;;3.33;0.73;;;41.30;99.90;;;;;;5042108;28;20013;-79
2022/07/17 08:15:29;;;;;;;2.75;0.70;;;42.60;99.90;;;;;;5044001;28;20022;-78
2022/07/17 08:17:54;;;;;;;2.92;0.93;;;41.80;99.90;;;;;;5043975;28;20034;-78
2022/07/17 08:20:21;;;;;;;2.42;0.70;;;41.90;99.90;;;;;;5032359;28;20025;-78
2022/07/17 08:22:47;;;;;;;1.45;0.80;;;43.80;99.90;;;;;;5039258;28;20026;-79
2022/07/17 08:25:14;;;;;;;2.35;0.85;;;43.80;99.90;;;;;;5033944;28;20022;-78
2022/07/17 08:27:40;;;;;;;3.20;0.90;;;43.30;99.90;;;;;;5054396;28;20025;-78
2022/07/17 08:30:08;;;;;;;3.67;0.80;;;44.20;99.90;;;;;;5046458;28;20032;-79
2022/07/17 08:32:35;;;;;;;3.65;1.10;;;44.00;99.90;;;;;;5038277;28;20034;-79
2022/07/17 08:35:01;;;;;;;2.50;0.80;;;45.00;99.90;;;;;;5047216;28;20022;-78
2022/07/17 08:37:27;;;;;;;2.55;0.90;;;44.90;99.90;;;;;;5043295;28;20041;-78
2022/07/17 08:39:53;;;;;;;1.35;0.60;;;45.10;99.90;;;;;;5040937;28;20018;-79
2022/07/17 08:42:18;;;;;;;1.85;0.90;;;44.90;99.90;;;;;;5043336;28;20052;-78
2022/07/17 08:44:45;;;;;;;3.03;1.00;;;42.10;99.90;;;;;;5044034;28;20033;-79
2022/07/17 08:47:14;;;;;;;2.80;0.90;;;43.60;99.90;;;;;;5042652;28;20022;-79
2022/07/17 08:49:45;;;;;;;3.00;0.93;;;43.80;99.90;;;;;;5046646;28;20080;-77
2022/07/17 08:52:14;;;;;;;2.78;0.90;;;45.10;99.90;;;;;;5033375;28;20053;-77
2022/07/17 08:54:41;;;;;;;2.90;0.70;;;44.90;99.90;;;;;;5037271;28;20049;-77
2022/07/17 08:57:07;;;;;;;2.50;1.00;;;42.40;99.90;;;;;;5025250;28;20042;-77
2022/07/17 08:59:33;;;;;;;2.25;0.90;;;40.00;99.90;;;;;;5035990;28;20639;-77
2022/07/17 09:02:03;;;;;;;1.40;0.73;;;42.60;99.90;;;;;;5035535;28;20050;-77
2022/07/17 09:04:28;;;;;;;1.48;0.77;;;43.20;99.90;;;;;;5047498;28;20029;-77
2022/07/17 09:07:02;;;;;;;2.45;1.00;;;42.80;99.90;;;;;;5028229;28;20037;-77
2022/07/17 09:09:28;;;;;;;2.08;0.90;;;42.80;99.90;;;;;;5019360;28;20030;-77
2022/07/17 09:11:55;;;;;;;2.05;1.10;;;43.20;99.90;;;;;;5041079;28;20044;-78
2022/07/17 09:14:21;;;;;;;2.35;0.90;;;44.50;99.90;;;;;;5035389;28;20077;-78
2022/07/17 09:16:54;;;;;;;1.40;1.00;;;43.30;99.90;;;;;;5040808;28;20028;-78
2022/07/17 09:19:32;;;;;;;2.17;0.65;;;43.70;99.90;;;;;;5040620;28;20058;-78
2022/07/17 09:22:24;;;;;;;2.53;0.80;;;43.60;99.90;;;;;;5041698;28;20029;-78
2022/07/17 09:24:54;;;;;;;2.20;0.77;;;43.20;99.90;;;;;;5040959;28;20033;-78
2022/07/17 09:27:23;;;;;;;1.30;0.85;;;44.50;99.90;;;;;;5046850;28;20077;-78
2022/07/17 09:29:50;;;;;;;2.30;0.93;;;45.00;99.90;;;;;;5038074;28;20029;-79
2022/07/17 09:32:21;;;;;;;2.65;0.80;;;44.30;99.90;;;;;;5048717;28;20093;-78
2022/07/17 09:34:48;;;;;;;1.05;0.90;;;44.80;99.90;;;;;;5040695;28;20025;-76
2022/07/17 09:37:14;;;;;;;2.20;0.80;;;41.80;99.90;;;;;;5030236;28;20045;-78
2022/07/17 09:39:40;;;;;;;1.60;0.85;;;40.10;99.90;;;;;;5043059;28;20032;-77
2022/07/17 09:42:06;;;;;;;1.85;0.98;;;39.30;99.90;;;;;;5049387;28;20033;-78
2022/07/17 09:44:31;;;;;;;3.70;0.82;;;38.90;99.90;;;;;;5047436;28;20038;-78
2022/07/17 09:46:57;;;;;;;2.15;0.77;;;41.00;99.90;;;;;;5051476;28;20022;-78
2022/07/17 09:49:26;;;;;;;2.75;1.08;;;43.90;99.90;;;;;;5041861;28;20024;-78
2022/07/17 09:51:53;;;;;;;3.22;1.30;;;42.70;99.90;;;;;;5031269;28;20031;-78
2022/07/17 09:54:22;;;;;;;1.58;0.80;;;41.20;99.90;;;;;;5040073;28;20116;-78
2022/07/17 09:56:50;;;;;;;0.60;0.60;;;40.30;99.90;;;;;;5035033;28;20061;-78
2022/07/17 09:59:17;;;;;;;1.75;0.98;;;42.00;99.90;;;;;;5046077;28;20022;-77
2022/07/17 10:01:44;;;;;;;2.03;0.95;;;44.40;99.90;;;;;;5046540;28;20029;-77
2022/07/17 10:04:21;;;;;;;1.48;0.90;;;42.70;99.90;;;;;;5040711;28;20022;-78
2022/07/17 10:06:47;;;;;;;1.77;1.00;;;42.30;99.90;;;;;;5035443;28;20093;-78
2022/07/17 10:09:13;;;;;;;2.53;1.00;;;42.30;99.90;;;;;;5042276;28;20022;-78
2022/07/17 10:11:40;;;;;;;1.10;1.00;;;41.00;99.90;;;;;;5037924;28;20014;-77
2022/07/17 10:14:13;;;;;;;1.85;0.98;;;41.60;99.90;;;;;;5036623;28;20045;-78
2022/07/17 10:16:39;;;;;;;2.08;0.95;;;42.80;99.90;;;;;;5027224;28;20033;-77
2022/07/17 10:19:19;;;;;;;1.15;0.80;;;43.20;99.90;;;;;;5035564;28;20030;-78
2022/07/17 10:22:00;;;;;;;2.33;0.82;;;43.50;99.90;;;;;;5029145;28;20029;-79
2022/07/17 10:24:27;;;;;;;1.15;0.80;;;43.70;99.90;;;;;;5030783;28;20034;-78
2022/07/17 10:26:53;;;;;;;2.20;0.77;;;41.40;99.90;;;;;;5025452;28;20018;-77
2022/07/17 10:29:29;;;;;;;1.92;0.70;;;42.00;99.90;;;;;;5038777;28;20060;-78
2022/07/17 10:31:55;;;;;;;2.08;0.85;;;42.80;99.90;;;;;;5034170;28;20033;-78
2022/07/17 10:34:38;;;;;;;1.83;0.90;;;42.30;99.90;;;;;;5032460;28;20022;-78
2022/07/17 10:37:14;;;;;;;2.70;1.05;;;43.70;99.90;;;;;;5022344;28;20030;-77
2022/07/17 10:39:50;;;;;;;2.42;0.93;;;43.00;99.90;;;;;;5013396;28;20074;-77
2022/07/17 10:42:37;;;;;;;1.60;1.00;;;42.90;99.90;;;;;;5016575;28;20132;-78
2022/07/17 10:45:10;;;;;;;1.42;0.90;;;44.30;99.90;;;;;;5022526;28;20032;-77
2022/07/17 10:48:08;;;;;;;1.70;0.85;;;43.70;99.90;;;;;;5032234;28;20507;-77
2022/07/17 10:50:48;;;;;;;2.55;1.10;;;42.50;99.90;;;;;;4984391;28;20034;-78
2022/07/17 10:53:22;;;;;;;2.13;1.00;;;40.40;99.90;;;;;;5019733;28;20334;-78
2022/07/17 10:55:56;;;;;;;2.72;0.95;;;41.60;99.90;;;;;;5029016;28;20539;-78
2022/07/17 10:58:38;;;;;;;1.73;0.85;;;42.20;99.90;;;;;;5032421;28;20029;-78
2022/07/17 11:01:10;;;;;;;1.42;0.95;;;42.00;99.90;;;;;;5020707;28;20029;-77
2022/07/17 11:03:37;;;;;;;1.58;0.90;;;41.60;99.90;;;;;;5015419;28;20041;-77
2022/07/17 11:06:14;;;;;;;3.33;1.20;;;41.60;99.90;;;;;;5004509;28;20022;-77
2022/07/17 11:08:45;;;;;;;1.42;1.00;;;40.40;99.90;;;;;;5022106;28;20389;-78
2022/07/17 11:11:11;;;;;;;2.22;0.95;;;40.40;99.90;;;;;;5024583;28;20018;-77
2022/07/17 11:13:36;;;;;;;1.88;1.17;;;40.00;99.90;;;;;;5037820;28;20767;-77
2022/07/17 11:16:02;;;;;;;1.58;1.30;;;39.00;99.90;;;;;;5036826;28;20480;-77
2022/07/17 11:18:29;;;;;;;1.95;1.02;;;38.40;99.90;;;;;;5024790;28;20040;-78
2022/07/17 11:20:59;;;;;;;1.98;1.20;;;37.60;99.90;;;;;;5020240;28;20046;-78
2022/07/17 11:23:27;;;;;;;2.38;1.20;;;36.00;99.90;;;;;;5034982;28;20026;-78
2022/07/17 11:25:58;;;;;;;2.67;1.42;;;34.60;99.90;;;;;;5031485;28;20045;-77
2022/07/17 11:28:42;;;;;;;3.50;1.40;;;33.20;99.90;;;;;;5043926;28;20049;-78
2022/07/17 11:31:19;;;;;;;1.50;1.20;;;32.00;99.90;;;;;;5047794;28;20162;-78
2022/07/17 11:33:54;;;;;;;2.22;1.30;;;31.90;99.90;;;;;;5028414;28;20032;-77
2022/07/17 11:36:46;;;;;;;1.50;1.38;;;31.90;99.90;;;;;;5030439;28;20461;-77
2022/07/17 11:39:18;;;;;;;2.45;1.17;;;31.30;99.90;;;;;;5043169;28;20100;-78
2022/07/17 11:41:52;;;;;;;2.90;1.08;;;31.10;99.90;;;;;;5025311;28;20038;-77
2022/07/17 11:44:20;;;;;;;1.55;1.08;;;30.90;99.90;;;;;;5026272;28;20025;-77
2022/07/17 11:46:49;;;;;;;2.15;1.40;;;31.30;99.90;;;;;;5032570;28;20085;-77
2022/07/17 11:49:44;;;;;;;2.33;1.50;;;30.90;99.90;;;;;;5030367;28;20029;-77
2022/07/17 11:52:18;;;;;;;2.15;1.30;;;31.00;99.90;;;;;;5033275;28;20045;-78
2022/07/17 11:54:54;;;;;;;4.93;1.30;;;30.20;99.90;;;;;;5026794;28;20029;-77
2022/07/17 11:57:20;;;;;;;2.60;1.38;;;30.40;99.90;;;;;;5042403;28;20696;-78
2022/07/17 11:59:47;;;;;;;2.22;1.25;;;30.40;99.90;;;;;;5026632;28;20029;-77
2022/07/17 12:02:31;;;;;;;3.90;1.40;;;30.10;99.90;;;;;;5040084;28;20025;-77
2022/07/17 12:04:58;;;;;;;3.80;1.50;;;30.20;99.90;;;;;;5023400;28;20026;-78
2022/07/17 12:07:26;;;;;;;1.55;0.90;;;29.70;99.90;;;;;;5039815;28;20065;-77
2022/07/17 12:09:53;;;;;;;2.63;1.33;;;29.80;99.90;;;;;;5025829;28;20094;-77
2022/07/17 12:12:26;;;;;;;5.15;1.73;;;29.10;99.90;;;;;;5029650;28;20029;-77
2022/07/17 12:14:53;;;;;;;2.72;1.10;;;29.50;99.90;;;;;;5026192;28;20040;-77
2022/07/17 12:17:20;;;;;;;2.92;1.33;;;29.50;99.90;;;;;;5037925;28;20053;-77
2022/07/17 12:19:46;;;;;;;3.20;1.23;;;28.90;99.90;;;;;;5037927;28;20022;-78
2022/07/17 12:22:11;;;;;;;4.80;1.30;;;29.40;99.90;;;;;;5023125;28;20095;-78
2022/07/17 12:24:42;;;;;;;3.78;1.60;;;29.40;99.90;;;;;;5028694;28;20029;-78
2022/07/17 12:27:10;;;;;;;2.67;1.48;;;29.80;99.90;;;;;;5034746;28;20159;-78
2022/07/17 12:29:37;;;;;;;3.95;1.58;;;29.80;99.90;;;;;;5030631;28;20060;-77
2022/07/17 12:32:14;;;;;;;3.22;1.40;;;29.60;99.90;;;;;;5026351;28;20133;-77
2022/07/17 12:34:45;;;;;;;3.08;1.35;;;29.80;99.90;;;;;;5027935;28;20056;-77
2022/07/17 12:37:21;;;;;;;2.40;1.20;;;29.80;99.90;;;;;;5026608;28;20035;-77
2022/07/17 12:39:48;;;;;;;3.70;1.30;;;30.10;99.90;;;;;;5035822;28;20052;-76
2022/07/17 12:42:15;;;;;;;2.20;1.10;;;30.20;99.90;;;;;;5034844;28;20050;-77
2022/07/17 12:44:42;;;;;;;2.83;1.42;;;29.40;99.90;;;;;;5033060;28;20017;-77
2022/07/17 12:47:08;;;;;;;2.72;1.38;;;29.70;99.90;;;;;;5041428;28;20038;-77
2022/07/17 12:49:34;;;;;;;2.13;1.40;;;28.90;99.90;;;;;;5048992;28;20022;-77
2022/07/17 12:51:59;;;;;;;2.75;1.30;;;29.20;99.90;;;;;;5035773;28;20076;-77